KSYR/SYR METAR and TAF weather

Enter ICAO airport designator
Station Type Date Time Source
KSYR METAR 2019/12/16 05:54 UTC NOAA

KSYR 160554Z 24007KT 9SM -SN BKN034 OVC046 M03/M05 A3017 RMK AO2 SNE24B47 SLP219 4/001 P0000 60003 T10281050 11017 21050 51006 $


Station Type Date Time Source
KSYR Decoded METAR 2019/12/16 05:54 UTC NOAA

SYRACUSE HANCOCK INTERNATIONAL AIRPORT , NY, United States (KSYR) 43-07N 76-06W 127M
Dec 16, 2019 - 12:54 AM EST / 2019.12.16 0554 UTC
Wind: from the WSW (240 degrees) at 8 MPH (7 KT):0
Visibility: 9 mile(s):0
Sky conditions: overcast
Weather: light snow; 1 inches of snow on ground
Precipitation last hour: A trace
Temperature: 27.0 F (-2.8 C)
Windchill: 19 F (-7 C):1
Dew Point: 23.0 F (-5.0 C)
Relative Humidity: 84%
Pressure (altimeter): 30.17 in. Hg (1021 hPa)
Pressure tendency: 0.02 inches (0.6 hPa) higher than three hours ago
ob: KSYR 160554Z 24007KT 9SM -SN BKN034 OVC046 M03/M05 A3017 RMK AO2 SNE24B47 SLP219 4/001 P0000 60003 T10281050 11017 21050 51006
cycle: 6

Station Type Date Time Source
KSYR TAF 2019/12/16 06:45 UTC NOAA

TAF KSYR 160543Z 1606/1706 27007KT 6SM -SHSN BR SCT028 BKN040
FM161400 20004KT P6SM SCT035 BKN050
FM161700 VRB04KT P6SM SCT120 BKN200
FM170300 09004KT P6SM SCT060 BKN090 OVC200

Example: see airport list